Terminal Aerodrome Forecast
Issued by NWS

Home | Current Version | Previous Version | Text Only | Print | Product List | Glossary On
Versions: 1 2 3 4 5 6 7 8 9 10 11 12 13 14 15
625
FTUS45 KPIH 140819 AAA
TAFSUN
TAF AMD
KSUN 140819Z 1408/1506 31007KT P6SM VCSH SCT020 OVC050
     FM141600 18011KT P6SM VCSH SCT020 BKN050
     FM150300 30008KT P6SM SCT050 BKN080
      AMD LTD TO CLD VIS AND WIND TIL 141400=

USA.gov is the U.S. government's official web portal to all federal, state and local government web resources and services.